Time;durP1;ratioP1;P1;durP2;ratioP2;P2;SDS_P1;SDS_P2;PMS_P1;PMS_P2;Temp;Humidity;BMP_temperature;BMP_pressure;BME280_temperature;BME280_humidity;BME280_pressure;Samples;Min_cycle;Max_cycle;Signal;HPM_P1;HPM_P2
2022/02/16 00:01:41;;;;;;;22.03;19.03;;;8.60;99.90;;;;;;5085229;27;37811;-78
2022/02/16 00:04:07;;;;;;;19.77;17.73;;;8.60;99.90;;;;;;5089868;27;38686;-78
2022/02/16 00:06:33;;;;;;;18.10;16.00;;;8.60;99.90;;;;;;5090953;27;39630;-77
2022/02/16 00:08:59;;;;;;;19.10;17.10;;;8.60;99.90;;;;;;5090633;27;38311;-78
2022/02/16 00:11:25;;;;;;;20.50;17.27;;;8.60;99.90;;;;;;5082179;27;37587;-78
2022/02/16 00:13:52;;;;;;;19.27;17.23;;;8.60;99.90;;;;;;5087872;27;38367;-78
2022/02/16 00:16:18;;;;;;;21.87;17.33;;;8.70;99.90;;;;;;5102910;27;38283;-78
2022/02/16 00:18:44;;;;;;;19.70;17.60;;;8.70;99.90;;;;;;5105737;27;38423;-78
2022/02/16 00:21:10;;;;;;;19.20;17.00;;;8.70;99.90;;;;;;5105720;27;39815;-78
2022/02/16 00:23:36;;;;;;;19.77;17.47;;;8.70;99.90;;;;;;5105116;27;39296;-79
2022/02/16 00:26:02;;;;;;;21.17;17.67;;;8.70;99.90;;;;;;5103466;27;39012;-78
2022/02/16 00:28:29;;;;;;;20.60;18.40;;;8.70;99.90;;;;;;5103240;27;38811;-78
2022/02/16 00:30:55;;;;;;;20.07;17.97;;;8.70;99.90;;;;;;5098191;27;38984;-78
2022/02/16 00:33:22;;;;;;;18.77;15.67;;;8.70;99.90;;;;;;5090776;27;38569;-78
2022/02/16 00:35:48;;;;;;;23.00;19.43;;;8.70;99.90;;;;;;5106046;27;39218;-78
2022/02/16 00:38:14;;;;;;;21.40;18.00;;;8.70;99.90;;;;;;5088999;27;36770;-78
2022/02/16 00:40:40;;;;;;;18.63;16.40;;;8.70;99.90;;;;;;5098032;27;39445;-78
2022/02/16 00:43:06;;;;;;;19.53;15.70;;;8.70;99.90;;;;;;5096685;27;37564;-78
2022/02/16 00:45:32;;;;;;;17.30;15.57;;;8.70;99.90;;;;;;5105277;27;40013;-78
2022/02/16 00:47:59;;;;;;;20.80;15.63;;;8.70;99.90;;;;;;5089704;27;36350;-78
2022/02/16 00:50:26;;;;;;;17.23;14.67;;;8.70;99.90;;;;;;5100144;27;37568;-78
2022/02/16 00:52:52;;;;;;;19.77;13.53;;;8.70;99.90;;;;;;5093602;27;37920;-78
2022/02/16 00:55:18;;;;;;;21.90;14.00;;;8.70;99.90;;;;;;5090550;27;38869;-78
2022/02/16 00:57:44;;;;;;;16.47;13.47;;;8.70;99.90;;;;;;5107278;27;37265;-79
2022/02/16 01:00:12;;;;;;;17.50;12.77;;;8.80;99.90;;;;;;5087826;27;40200;-78
2022/02/16 01:02:39;;;;;;;18.70;12.87;;;8.70;99.90;;;;;;5092037;27;39176;-78
2022/02/16 01:05:05;;;;;;;22.83;15.03;;;8.80;99.90;;;;;;5102987;27;37909;-78
2022/02/16 01:07:32;;;;;;;23.23;14.47;;;8.80;99.90;;;;;;5104842;27;36958;-78
2022/02/16 01:09:58;;;;;;;18.40;14.57;;;8.80;99.90;;;;;;5091864;27;40272;-78
2022/02/16 01:12:24;;;;;;;18.43;14.13;;;8.80;99.90;;;;;;5084532;27;39440;-78
2022/02/16 01:14:50;;;;;;;21.33;12.50;;;8.80;99.90;;;;;;5102416;27;38339;-78
2022/02/16 01:17:16;;;;;;;25.50;17.13;;;8.80;99.90;;;;;;5088534;27;36385;-78
2022/02/16 01:19:42;;;;;;;24.53;17.60;;;8.80;99.90;;;;;;5093923;27;39515;-78
2022/02/16 01:22:08;;;;;;;28.47;20.03;;;8.80;99.90;;;;;;5102066;27;38128;-79
2022/02/16 01:24:35;;;;;;;28.93;19.43;;;8.90;99.90;;;;;;5105362;27;37935;-79
2022/02/16 01:27:01;;;;;;;29.80;19.43;;;8.90;99.90;;;;;;5090382;27;37549;-78
2022/02/16 01:29:27;;;;;;;33.83;20.57;;;8.90;99.90;;;;;;5100374;27;47713;-79
2022/02/16 01:31:53;;;;;;;34.53;20.23;;;8.90;99.90;;;;;;5095361;27;38564;-78
2022/02/16 01:34:19;;;;;;;20.90;16.40;;;8.90;99.90;;;;;;5103598;27;37144;-78
2022/02/16 01:36:46;;;;;;;27.37;17.10;;;8.90;99.90;;;;;;5083447;27;39221;-78
2022/02/16 01:39:12;;;;;;;24.53;16.77;;;8.90;99.90;;;;;;5084049;27;39689;-78
2022/02/16 01:41:38;;;;;;;28.47;16.67;;;8.90;99.90;;;;;;5096245;27;38687;-78
2022/02/16 01:44:05;;;;;;;24.47;14.93;;;9.00;99.90;;;;;;5102845;27;38498;-78
2022/02/16 01:46:33;;;;;;;24.63;16.93;;;9.00;99.90;;;;;;5102209;27;37712;-78
2022/02/16 01:48:59;;;;;;;23.07;14.63;;;9.00;99.90;;;;;;5091055;27;39497;-78
2022/02/16 01:51:25;;;;;;;24.97;15.57;;;9.00;99.90;;;;;;5083802;27;38517;-79
2022/02/16 01:53:51;;;;;;;26.13;15.27;;;9.10;99.90;;;;;;5087197;27;38788;-78
2022/02/16 01:56:19;;;;;;;25.60;13.90;;;9.10;99.90;;;;;;5102262;27;39147;-78
2022/02/16 01:58:46;;;;;;;24.47;14.50;;;9.00;99.90;;;;;;5083610;27;39856;-78
2022/02/16 02:01:12;;;;;;;24.90;14.47;;;9.10;99.90;;;;;;5091847;27;36979;-78
2022/02/16 02:03:38;;;;;;;22.47;14.17;;;9.10;99.90;;;;;;5089568;27;38224;-79
2022/02/16 02:06:04;;;;;;;25.23;14.63;;;9.10;99.90;;;;;;5069480;27;37073;-78
2022/02/16 02:08:30;;;;;;;24.63;15.77;;;9.10;99.90;;;;;;5106359;27;39654;-78
2022/02/16 02:10:57;;;;;;;19.93;15.03;;;9.10;99.90;;;;;;5099536;27;38568;-78
2022/02/16 02:13:23;;;;;;;24.70;16.10;;;9.00;99.90;;;;;;5083740;27;38905;-78
2022/02/16 02:15:49;;;;;;;21.20;16.57;;;9.00;99.90;;;;;;5111301;27;37541;-78
2022/02/16 02:18:17;;;;;;;23.00;17.33;;;9.00;99.90;;;;;;5093165;27;39769;-79
2022/02/16 02:20:44;;;;;;;26.80;17.73;;;9.00;99.90;;;;;;5085370;27;40290;-78
2022/02/16 02:23:11;;;;;;;23.60;15.67;;;9.00;99.90;;;;;;5102789;27;39345;-79
2022/02/16 02:25:49;;;;;;;19.83;16.77;;;9.10;99.90;;;;;;5086471;27;37023;-79
2022/02/16 02:28:16;;;;;;;20.53;15.97;;;9.10;99.90;;;;;;5093492;27;40740;-78
2022/02/16 02:30:42;;;;;;;23.07;14.47;;;9.10;99.90;;;;;;5080399;27;38783;-78
2022/02/16 02:33:09;;;;;;;19.33;14.10;;;9.10;99.90;;;;;;5083565;27;39421;-78
2022/02/16 02:35:35;;;;;;;22.57;15.00;;;9.10;99.90;;;;;;5091702;27;38144;-79
2022/02/16 02:38:01;;;;;;;20.17;15.47;;;9.10;99.90;;;;;;5088052;28;37824;-78
2022/02/16 02:40:27;;;;;;;25.80;15.63;;;9.10;99.90;;;;;;5101296;27;39437;-78
2022/02/16 02:42:53;;;;;;;18.00;13.90;;;9.10;99.90;;;;;;5077170;27;38128;-79
2022/02/16 02:45:19;;;;;;;19.70;13.03;;;9.10;99.90;;;;;;5077551;27;35012;-78
2022/02/16 02:47:45;;;;;;;20.07;13.60;;;9.10;99.90;;;;;;5075403;27;39565;-79
2022/02/16 02:50:12;;;;;;;17.50;13.10;;;9.10;99.90;;;;;;5094769;27;38339;-78
2022/02/16 02:52:38;;;;;;;17.90;13.43;;;9.20;99.90;;;;;;5087551;27;37150;-78
2022/02/16 02:55:06;;;;;;;17.37;14.00;;;9.10;99.90;;;;;;5086128;27;38784;-78
2022/02/16 02:57:32;;;;;;;17.77;13.73;;;9.10;99.90;;;;;;5088847;27;47042;-78
2022/02/16 02:59:58;;;;;;;18.67;13.87;;;9.10;99.90;;;;;;5099457;27;39164;-79
2022/02/16 03:02:24;;;;;;;17.93;14.40;;;9.10;99.90;;;;;;5083852;28;39516;-78
2022/02/16 03:04:50;;;;;;;18.83;15.23;;;9.10;99.90;;;;;;5081919;27;39326;-78
2022/02/16 03:07:16;;;;;;;15.60;12.03;;;9.10;99.90;;;;;;5103890;27;39047;-78
2022/02/16 03:09:42;;;;;;;15.30;12.63;;;9.10;99.90;;;;;;5074547;27;37004;-78
2022/02/16 03:12:09;;;;;;;17.87;11.23;;;9.10;99.90;;;;;;5086675;27;38571;-77
2022/02/16 03:14:36;;;;;;;13.07;10.87;;;9.20;99.90;;;;;;5100376;27;37414;-77
2022/02/16 03:17:03;;;;;;;13.63;10.10;;;9.20;99.90;;;;;;5093148;27;40177;-78
2022/02/16 03:19:29;;;;;;;11.47;9.60;;;9.10;99.90;;;;;;5102793;27;39236;-78
2022/02/16 03:21:56;;;;;;;10.53;9.43;;;9.10;99.90;;;;;;5086461;27;39228;-78
2022/02/16 03:24:22;;;;;;;11.90;9.17;;;9.10;99.90;;;;;;5086425;28;37924;-78
2022/02/16 03:26:48;;;;;;;8.93;8.00;;;9.10;99.90;;;;;;5103933;27;40544;-78
2022/02/16 03:29:14;;;;;;;9.87;8.50;;;9.10;99.90;;;;;;5085879;27;38778;-78
2022/02/16 03:31:42;;;;;;;10.33;8.53;;;9.10;99.90;;;;;;5086922;27;40203;-78
2022/02/16 03:34:08;;;;;;;8.63;7.13;;;9.10;99.90;;;;;;5098485;27;37095;-78
2022/02/16 03:36:34;;;;;;;11.10;7.40;;;9.10;99.90;;;;;;5086754;27;39734;-78
2022/02/16 03:39:01;;;;;;;8.93;7.63;;;9.10;99.90;;;;;;5087402;27;39049;-79
2022/02/16 03:41:27;;;;;;;9.17;8.27;;;9.10;99.90;;;;;;5070121;27;39501;-78
2022/02/16 03:43:53;;;;;;;10.40;9.30;;;9.10;99.90;;;;;;5081128;28;37862;-78
2022/02/16 03:46:19;;;;;;;10.10;9.10;;;9.20;99.90;;;;;;5077285;28;38928;-78
2022/02/16 03:48:46;;;;;;;14.80;10.33;;;9.20;99.90;;;;;;5057287;28;40086;-78
2022/02/16 03:51:13;;;;;;;13.90;10.70;;;9.20;99.90;;;;;;5057629;27;38420;-78
2022/02/16 03:53:39;;;;;;;15.57;12.13;;;9.20;99.90;;;;;;5097095;27;38208;-78
2022/02/16 03:56:05;;;;;;;15.00;11.93;;;9.20;99.90;;;;;;5079869;27;39644;-78
2022/02/16 03:58:31;;;;;;;13.57;11.63;;;9.20;99.90;;;;;;5069390;28;39776;-78
2022/02/16 04:00:57;;;;;;;14.33;12.43;;;9.20;99.90;;;;;;5115294;27;39813;-78
2022/02/16 04:03:24;;;;;;;15.23;11.80;;;9.20;99.90;;;;;;5120970;27;38264;-78
2022/02/16 04:05:50;;;;;;;15.30;13.30;;;9.20;99.90;;;;;;5117091;27;39415;-78
2022/02/16 04:08:16;;;;;;;18.97;15.93;;;9.20;99.90;;;;;;5087789;27;38578;-79
2022/02/16 04:10:42;;;;;;;21.77;16.87;;;9.20;99.90;;;;;;5081344;27;38461;-79
2022/02/16 04:13:08;;;;;;;19.17;17.03;;;9.20;99.90;;;;;;5118385;27;37963;-78
2022/02/16 04:15:36;;;;;;;20.17;17.73;;;9.30;99.90;;;;;;5082635;27;38759;-79
2022/02/16 04:18:02;;;;;;;18.47;16.37;;;9.30;99.90;;;;;;5119516;27;38442;-78
2022/02/16 04:20:28;;;;;;;16.03;14.37;;;9.20;99.90;;;;;;5084385;27;38829;-81
2022/02/16 04:22:54;;;;;;;15.23;13.63;;;9.20;99.90;;;;;;5086228;27;38335;-79
2022/02/16 04:25:21;;;;;;;15.90;13.50;;;9.20;99.90;;;;;;5080782;27;41237;-79
2022/02/16 04:27:47;;;;;;;14.50;12.93;;;9.30;99.90;;;;;;5085243;27;38408;-78
2022/02/16 04:30:14;;;;;;;14.20;12.77;;;9.30;99.90;;;;;;5075260;27;38990;-78
2022/02/16 04:32:41;;;;;;;12.97;11.57;;;9.30;99.90;;;;;;5074709;27;37064;-78
2022/02/16 04:35:10;;;;;;;11.97;10.77;;;9.30;99.90;;;;;;5071977;27;39500;-79
2022/02/16 04:37:36;;;;;;;11.30;9.50;;;9.30;99.90;;;;;;5087459;27;38336;-78
2022/02/16 04:40:04;;;;;;;12.57;10.00;;;9.30;99.90;;;;;;5085990;27;37394;-79
2022/02/16 04:42:31;;;;;;;8.90;8.00;;;9.30;99.90;;;;;;5086126;27;46814;-78
2022/02/16 04:44:58;;;;;;;8.23;7.47;;;9.30;99.90;;;;;;5082959;27;39756;-78
2022/02/16 04:47:24;;;;;;;8.90;7.37;;;9.30;99.90;;;;;;5090380;27;38272;-78
2022/02/16 04:49:50;;;;;;;8.40;7.23;;;9.30;99.90;;;;;;5091233;27;39070;-78
2022/02/16 04:52:16;;;;;;;9.27;7.17;;;9.30;99.90;;;;;;5075652;27;36892;-78
2022/02/16 04:54:42;;;;;;;12.13;8.00;;;9.40;99.90;;;;;;5082099;28;38304;-80
2022/02/16 04:57:08;;;;;;;8.17;7.33;;;9.40;99.90;;;;;;5084049;27;38628;-78
2022/02/16 04:59:34;;;;;;;8.77;7.27;;;9.40;99.90;;;;;;5082492;28;39550;-78
2022/02/16 05:02:00;;;;;;;8.93;7.53;;;9.40;99.90;;;;;;5085866;27;38269;-77
2022/02/16 05:04:26;;;;;;;8.40;7.10;;;9.40;99.90;;;;;;5082959;27;47612;-79
2022/02/16 05:06:53;;;;;;;12.23;8.17;;;9.40;99.90;;;;;;5083790;27;38447;-78
2022/02/16 05:09:19;;;;;;;12.00;8.10;;;9.40;99.90;;;;;;5088709;27;39043;-79
2022/02/16 05:11:45;;;;;;;11.10;8.83;;;9.40;99.90;;;;;;5084799;27;37578;-77
2022/02/16 05:14:12;;;;;;;10.07;8.87;;;9.40;99.90;;;;;;5087908;27;37789;-78
2022/02/16 05:16:38;;;;;;;10.93;9.67;;;9.40;99.90;;;;;;5083250;27;39254;-78
2022/02/16 05:19:04;;;;;;;11.53;10.33;;;9.50;99.90;;;;;;5090189;27;39839;-79
2022/02/16 05:21:30;;;;;;;12.20;9.43;;;9.50;99.90;;;;;;5089328;27;37788;-78
2022/02/16 05:23:56;;;;;;;12.90;9.20;;;9.50;99.90;;;;;;5083042;27;38829;-80
2022/02/16 05:26:22;;;;;;;10.60;9.60;;;9.50;99.90;;;;;;5083773;27;37200;-79
2022/02/16 05:28:48;;;;;;;10.50;9.50;;;9.50;99.90;;;;;;5088475;27;36858;-79
2022/02/16 05:31:14;;;;;;;11.50;8.93;;;9.50;99.90;;;;;;5085260;27;38322;-79
2022/02/16 05:33:40;;;;;;;12.23;9.63;;;9.60;99.90;;;;;;5082699;27;39021;-79
2022/02/16 05:36:06;;;;;;;12.60;10.40;;;9.60;99.90;;;;;;5081547;27;39949;-79
2022/02/16 05:38:35;;;;;;;12.80;11.40;;;9.60;99.90;;;;;;5084624;27;37300;-79
2022/02/16 05:41:01;;;;;;;13.03;10.97;;;9.60;99.90;;;;;;5085520;27;38283;-79
2022/02/16 05:43:27;;;;;;;13.63;12.23;;;9.70;99.90;;;;;;5095394;27;47123;-80
2022/02/16 05:45:53;;;;;;;13.27;11.93;;;9.70;99.90;;;;;;5087967;27;36993;-80
2022/02/16 05:48:22;;;;;;;14.50;13.00;;;9.70;99.90;;;;;;5090252;27;38011;-80
2022/02/16 05:50:49;;;;;;;15.03;12.33;;;9.70;99.90;;;;;;5090197;27;37770;-80
2022/02/16 05:53:16;;;;;;;12.27;10.97;;;9.70;99.90;;;;;;5090352;27;40706;-80
2022/02/16 05:55:42;;;;;;;14.70;11.27;;;9.70;99.90;;;;;;5101820;27;39531;-79
2022/02/16 05:58:08;;;;;;;13.33;10.67;;;9.80;99.90;;;;;;5079673;27;36693;-79
2022/02/16 06:00:34;;;;;;;12.63;10.50;;;9.80;99.90;;;;;;5099708;27;37136;-80
2022/02/16 06:03:00;;;;;;;11.90;9.77;;;9.80;99.90;;;;;;5099708;27;38999;-80
2022/02/16 06:05:26;;;;;;;12.27;9.87;;;9.80;99.90;;;;;;5088785;27;36932;-81
2022/02/16 06:07:52;;;;;;;11.17;9.37;;;9.80;99.90;;;;;;5097933;27;38583;-79
2022/02/16 06:10:19;;;;;;;12.23;9.37;;;9.80;99.90;;;;;;5092773;27;35446;-79
2022/02/16 06:12:45;;;;;;;14.97;9.40;;;9.90;99.90;;;;;;5086952;27;37567;-80
2022/02/16 06:15:11;;;;;;;12.47;8.90;;;9.90;99.90;;;;;;5092998;27;38278;-80
2022/02/16 06:17:38;;;;;;;12.00;8.13;;;9.90;99.90;;;;;;5085549;27;38161;-79
2022/02/16 06:20:05;;;;;;;8.50;7.30;;;9.90;99.90;;;;;;5077238;27;38549;-79
2022/02/16 06:22:31;;;;;;;8.23;6.67;;;9.90;99.90;;;;;;5085975;27;49082;-80
2022/02/16 06:24:58;;;;;;;9.10;6.33;;;9.90;99.90;;;;;;5085914;28;39510;-79
2022/02/16 06:27:24;;;;;;;9.23;6.20;;;9.90;99.90;;;;;;5099326;27;37188;-79
2022/02/16 06:29:50;;;;;;;10.90;6.13;;;9.90;99.90;;;;;;5088901;27;35960;-79
2022/02/16 06:32:16;;;;;;;8.80;5.90;;;9.90;99.90;;;;;;5086860;27;40261;-80
2022/02/16 06:34:42;;;;;;;6.57;5.73;;;9.90;99.90;;;;;;5095494;28;39904;-79
2022/02/16 06:37:09;;;;;;;8.23;5.60;;;9.90;99.90;;;;;;5091247;27;38962;-79
2022/02/16 06:39:34;;;;;;;8.20;6.50;;;9.90;99.90;;;;;;5090089;27;37795;-78
2022/02/16 06:42:01;;;;;;;6.57;5.80;;;10.00;99.90;;;;;;5066847;27;39423;-79
2022/02/16 06:44:27;;;;;;;6.57;5.93;;;10.00;99.90;;;;;;5081804;27;46775;-78
2022/02/16 06:46:53;;;;;;;8.40;6.87;;;10.00;99.90;;;;;;5094361;27;35966;-79
2022/02/16 06:49:19;;;;;;;7.27;6.40;;;10.00;99.90;;;;;;5088086;27;37771;-78
2022/02/16 06:51:45;;;;;;;9.10;7.20;;;10.00;99.90;;;;;;5085051;27;38759;-78
2022/02/16 06:54:11;;;;;;;10.30;8.30;;;10.00;99.90;;;;;;5081031;28;38864;-78
2022/02/16 06:56:38;;;;;;;9.87;7.93;;;10.00;99.90;;;;;;5086038;27;37158;-77
2022/02/16 06:59:04;;;;;;;10.50;8.33;;;10.00;99.90;;;;;;5084068;27;36899;-77
2022/02/16 07:01:30;;;;;;;13.83;9.03;;;10.10;99.90;;;;;;5081397;27;39204;-77
2022/02/16 07:03:56;;;;;;;10.67;9.23;;;10.10;99.90;;;;;;5082895;28;38955;-78
2022/02/16 07:06:22;;;;;;;10.23;8.90;;;10.10;99.90;;;;;;5090521;27;37947;-81
2022/02/16 07:08:48;;;;;;;11.17;9.30;;;10.10;99.90;;;;;;5095070;27;39193;-81
2022/02/16 07:11:14;;;;;;;10.80;8.23;;;10.10;99.90;;;;;;5088003;27;38447;-79
2022/02/16 07:13:40;;;;;;;12.10;8.03;;;10.20;99.90;;;;;;5081227;28;37758;-81
2022/02/16 07:16:06;;;;;;;10.00;8.27;;;10.30;99.90;;;;;;5094392;27;37802;-80
2022/02/16 07:18:35;;;;;;;10.00;7.60;;;10.30;99.90;;;;;;5098653;27;36192;-81
2022/02/16 07:21:01;;;;;;;10.03;8.00;;;10.30;99.90;;;;;;5097582;27;39997;-81
2022/02/16 07:23:30;;;;;;;11.47;7.70;;;10.40;99.90;;;;;;5098040;27;46964;-80
2022/02/16 07:25:57;;;;;;;12.57;8.60;;;10.50;99.90;;;;;;5101708;27;38339;-81
2022/02/16 07:28:23;;;;;;;13.67;9.30;;;10.50;99.90;;;;;;5101337;27;38007;-81
2022/02/16 07:30:49;;;;;;;15.47;10.03;;;10.50;99.90;;;;;;5097985;27;38862;-81
2022/02/16 07:33:17;;;;;;;12.83;8.97;;;10.60;99.90;;;;;;5105183;27;41028;-81
2022/02/16 07:35:44;;;;;;;16.60;10.87;;;10.70;99.90;;;;;;5094537;28;37252;-81
2022/02/16 07:38:10;;;;;;;22.37;12.03;;;10.70;99.90;;;;;;5093001;27;37474;-81
2022/02/16 07:40:36;;;;;;;22.93;12.20;;;10.80;99.90;;;;;;5099505;27;37682;-80
2022/02/16 07:43:03;;;;;;;28.97;13.37;;;10.80;99.90;;;;;;5099010;27;37138;-80
2022/02/16 07:45:29;;;;;;;23.87;11.57;;;10.90;99.90;;;;;;5100995;27;38203;-80
2022/02/16 07:47:56;;;;;;;27.50;11.53;;;10.90;99.90;;;;;;5094648;27;36328;-80
2022/02/16 07:50:22;;;;;;;34.97;11.90;;;10.90;99.90;;;;;;5096357;27;38685;-78
2022/02/16 07:52:49;;;;;;;42.15;12.18;;;10.90;99.90;;;;;;5099717;27;37208;-81
2022/02/16 07:55:15;;;;;;;27.13;10.30;;;10.90;99.90;;;;;;5120623;27;37901;-81
2022/02/16 07:57:42;;;;;;;39.53;9.93;;;10.90;99.90;;;;;;5094324;27;36617;-80
2022/02/16 08:00:09;;;;;;;30.50;8.97;;;10.90;99.90;;;;;;5080837;27;39280;-80
2022/02/16 08:02:35;;;;;;;31.70;8.77;;;11.00;99.90;;;;;;5095398;27;38271;-79
2022/02/16 08:05:02;;;;;;;36.57;8.33;;;10.90;99.90;;;;;;5097139;27;40073;-79
2022/02/16 08:07:29;;;;;;;38.13;7.13;;;11.00;99.90;;;;;;5091614;27;49111;-79
2022/02/16 08:09:55;;;;;;;28.93;5.93;;;10.90;99.90;;;;;;5098751;27;39341;-81
2022/02/16 08:12:21;;;;;;;24.40;5.93;;;11.00;99.90;;;;;;5103338;27;37138;-81
2022/02/16 08:14:47;;;;;;;33.38;6.65;;;11.00;99.90;;;;;;5090908;27;39174;-81
2022/02/16 08:17:13;;;;;;;31.70;6.80;;;11.00;99.90;;;;;;5096030;27;37524;-80
2022/02/16 08:19:39;;;;;;;31.15;6.28;;;11.00;99.90;;;;;;5093939;28;37202;-82
2022/02/16 08:22:06;;;;;;;35.13;6.88;;;11.10;99.90;;;;;;5096698;27;37963;-81
2022/02/16 08:24:32;;;;;;;36.43;7.00;;;11.10;99.90;;;;;;5095497;27;39314;-80
2022/02/16 08:26:59;;;;;;;39.63;6.95;;;11.20;99.90;;;;;;5093889;27;38264;-79
2022/02/16 08:29:25;;;;;;;36.90;6.60;;;11.20;99.90;;;;;;5095906;27;39452;-80
2022/02/16 08:31:52;;;;;;;40.05;6.75;;;11.30;99.90;;;;;;5089776;27;36632;-79
2022/02/16 08:34:19;;;;;;;49.95;7.75;;;11.30;99.90;;;;;;5091124;27;38398;-80
2022/02/16 08:36:45;;;;;;;43.03;7.57;;;11.30;99.90;;;;;;5091342;27;38002;-80
2022/02/16 08:39:11;;;;;;;49.90;7.77;;;11.30;99.90;;;;;;5091543;27;40050;-80
2022/02/16 08:41:38;;;;;;;55.73;7.47;;;11.30;99.90;;;;;;5094276;27;38775;-79
2022/02/16 08:44:05;;;;;;;52.78;7.70;;;11.40;99.90;;;;;;5090563;27;40002;-79
2022/02/16 08:46:31;;;;;;;56.70;9.90;;;11.30;99.90;;;;;;5090340;27;37869;-79
2022/02/16 08:49:01;;;;;;;43.88;8.02;;;11.40;99.90;;;;;;5086243;27;39000;-79
2022/02/16 08:51:29;;;;;;;51.20;8.65;;;11.40;99.90;;;;;;5090688;27;38316;-78
2022/02/16 08:53:55;;;;;;;47.05;7.10;;;11.40;99.90;;;;;;5082028;27;39610;-80
2022/02/16 08:56:22;;;;;;;44.80;7.13;;;11.40;99.90;;;;;;5083294;27;37933;-80
2022/02/16 08:58:48;;;;;;;48.20;8.45;;;11.40;99.90;;;;;;5085530;27;37772;-80
2022/02/16 09:01:14;;;;;;;43.30;7.47;;;11.40;99.90;;;;;;5084283;27;38794;-79
2022/02/16 09:03:40;;;;;;;53.30;8.83;;;11.50;99.90;;;;;;5085884;27;36894;-79
2022/02/16 09:06:06;;;;;;;45.47;8.10;;;11.60;99.90;;;;;;5088587;27;38154;-79
2022/02/16 09:08:33;;;;;;;44.90;8.07;;;11.50;99.90;;;;;;5094906;27;37881;-79
2022/02/16 09:10:59;;;;;;;47.17;8.17;;;11.60;99.90;;;;;;5095309;27;39022;-78
2022/02/16 09:13:25;;;;;;;51.75;8.30;;;11.60;99.90;;;;;;5087582;27;39033;-80
2022/02/16 09:15:51;;;;;;;53.25;8.32;;;11.60;99.90;;;;;;5087716;27;37177;-78
2022/02/16 09:18:17;;;;;;;45.28;7.72;;;11.60;99.90;;;;;;5074534;27;39802;-79
2022/02/16 09:20:47;;;;;;;42.88;7.60;;;11.70;99.90;;;;;;5079434;27;38090;-78
2022/02/16 09:23:17;;;;;;;40.13;7.57;;;11.70;99.90;;;;;;5089472;27;38745;-78
2022/02/16 09:25:44;;;;;;;43.15;7.47;;;11.80;99.90;;;;;;5086573;27;37435;-78
2022/02/16 09:28:12;;;;;;;49.13;7.43;;;11.90;99.90;;;;;;5088412;27;37405;-77
2022/02/16 09:30:38;;;;;;;36.65;7.05;;;11.90;99.90;;;;;;5084268;27;38553;-79
2022/02/16 09:33:05;;;;;;;45.30;8.00;;;11.90;99.90;;;;;;5107052;27;37907;-78
2022/02/16 09:35:31;;;;;;;38.33;7.57;;;12.10;99.90;;;;;;5110908;27;36254;-79
2022/02/16 09:37:57;;;;;;;28.98;5.45;;;12.10;99.90;;;;;;5092650;27;41023;-79
2022/02/16 09:40:23;;;;;;;34.67;6.57;;;12.20;99.90;;;;;;5083360;27;38217;-79
2022/02/16 09:42:49;;;;;;;32.67;6.32;;;12.30;99.90;;;;;;5095410;27;38562;-79
2022/02/16 09:45:16;;;;;;;32.13;5.68;;;12.30;99.90;;;;;;5093020;27;36012;-79
2022/02/16 09:47:44;;;;;;;40.13;7.20;;;12.30;99.90;;;;;;5105631;27;38898;-80
2022/02/16 09:50:14;;;;;;;28.00;5.85;;;12.20;99.90;;;;;;5110929;27;20098;-77
2022/02/16 09:52:42;;;;;;;39.25;6.00;;;12.30;99.90;;;;;;5093898;27;37945;-79
2022/02/16 09:55:09;;;;;;;32.67;6.32;;;12.20;99.90;;;;;;5091028;27;38852;-79
2022/02/16 09:57:35;;;;;;;33.10;6.25;;;12.20;99.90;;;;;;5084442;27;38139;-80
2022/02/16 10:00:01;;;;;;;41.10;7.10;;;12.30;99.90;;;;;;5097137;27;37352;-80
2022/02/16 10:02:38;;;;;;;32.85;6.72;;;12.30;99.90;;;;;;5104887;27;39463;-79
2022/02/16 10:05:06;;;;;;;36.22;7.28;;;12.30;99.90;;;;;;5096350;27;36229;-77
2022/02/16 10:07:35;;;;;;;34.90;6.82;;;12.30;99.90;;;;;;5075378;27;47231;-79
2022/02/16 10:10:16;;;;;;;43.33;6.63;;;12.20;99.90;;;;;;5062295;27;37232;-78
2022/02/16 10:12:48;;;;;;;43.75;7.55;;;12.20;99.90;;;;;;5091925;27;48505;-78
2022/02/16 10:15:38;;;;;;;35.80;7.35;;;12.10;99.90;;;;;;5092033;27;37706;-79
2022/02/16 10:18:18;;;;;;;32.33;6.82;;;12.20;99.90;;;;;;5083155;27;40414;-78
2022/02/16 10:20:45;;;;;;;42.65;7.03;;;12.20;99.90;;;;;;5084761;27;38657;-78
2022/02/16 10:23:12;;;;;;;34.67;6.72;;;12.20;99.90;;;;;;5078645;28;38461;-77
2022/02/16 10:25:47;;;;;;;41.42;6.63;;;12.20;99.90;;;;;;5102353;27;37309;-78
2022/02/16 10:28:18;;;;;;;42.40;6.88;;;12.20;99.90;;;;;;5097266;27;39294;-77
2022/02/16 10:31:04;;;;;;;44.67;6.28;;;12.30;99.90;;;;;;5102677;27;38395;-79
2022/02/16 10:33:40;;;;;;;37.58;7.53;;;12.30;99.90;;;;;;5104001;27;48857;-78
2022/02/16 10:36:13;;;;;;;36.33;5.97;;;12.40;99.90;;;;;;5087205;27;37013;-77
2022/02/16 10:39:10;;;;;;;43.53;7.35;;;12.40;99.90;;;;;;5099226;28;39732;-78
2022/02/16 10:41:44;;;;;;;40.78;8.07;;;12.40;99.90;;;;;;5054859;28;47110;-79
2022/02/16 10:44:23;;;;;;;40.92;7.18;;;12.40;99.90;;;;;;5074721;28;38396;-78
2022/02/16 10:47:10;;;;;;;31.08;5.93;;;12.40;99.90;;;;;;5084484;27;38529;-79
2022/02/16 10:49:38;;;;;;;38.28;6.72;;;12.40;99.90;;;;;;5076339;27;47147;-78
2022/02/16 10:52:10;;;;;;;29.55;6.15;;;12.40;99.90;;;;;;5082012;27;38551;-81
2022/02/16 10:54:37;;;;;;;33.27;6.87;;;12.30;99.90;;;;;;5085689;27;37041;-76
2022/02/16 10:57:04;;;;;;;32.78;6.68;;;12.30;99.90;;;;;;5085285;27;37557;-78
2022/02/16 10:59:31;;;;;;;31.38;6.47;;;12.20;99.90;;;;;;5078719;27;39794;-79
2022/02/16 11:02:04;;;;;;;37.38;6.10;;;12.30;99.90;;;;;;5092398;27;39367;-77
2022/02/16 11:04:31;;;;;;;32.72;6.60;;;12.30;99.90;;;;;;5083033;27;48610;-77
2022/02/16 11:06:59;;;;;;;36.72;6.63;;;12.30;99.90;;;;;;5084612;27;36891;-78
2022/02/16 11:09:26;;;;;;;43.40;8.15;;;12.20;99.90;;;;;;5084054;27;38755;-79
2022/02/16 11:11:55;;;;;;;29.88;6.68;;;12.20;99.90;;;;;;5086626;27;39117;-78
2022/02/16 11:14:29;;;;;;;36.63;6.45;;;12.30;99.90;;;;;;5084084;27;37013;-78
2022/02/16 11:16:56;;;;;;;41.40;8.07;;;12.30;99.90;;;;;;5100210;27;37338;-79
2022/02/16 11:19:35;;;;;;;39.08;6.70;;;12.20;99.90;;;;;;5098774;27;40178;-78
2022/02/16 11:22:04;;;;;;;38.13;7.05;;;12.20;99.90;;;;;;5091538;27;38528;-79
2022/02/16 11:24:34;;;;;;;36.05;5.57;;;12.20;99.90;;;;;;5075762;27;48897;-79
2022/02/16 11:27:20;;;;;;;36.10;6.72;;;12.30;99.90;;;;;;5081629;27;36975;-78
2022/02/16 11:29:47;;;;;;;37.20;6.53;;;12.30;99.90;;;;;;5083505;27;46891;-79
2022/02/16 11:32:13;;;;;;;35.72;6.28;;;12.30;99.90;;;;;;5101376;27;38629;-80
2022/02/16 11:34:40;;;;;;;35.53;6.55;;;12.40;99.90;;;;;;5099332;27;38560;-78
2022/02/16 11:37:08;;;;;;;45.70;8.27;;;12.40;99.90;;;;;;5105956;27;37154;-78
2022/02/16 11:39:49;;;;;;;38.30;7.32;;;12.40;99.90;;;;;;5110158;27;37527;-79
2022/02/16 11:42:38;;;;;;;34.83;6.50;;;12.40;99.90;;;;;;5096145;27;42494;-78
2022/02/16 11:45:06;;;;;;;46.55;7.93;;;12.50;99.90;;;;;;5105395;27;39503;-78
2022/02/16 11:47:35;;;;;;;31.00;5.85;;;12.60;99.90;;;;;;5104826;27;48826;-78
2022/02/16 11:50:10;;;;;;;39.58;6.75;;;12.50;99.90;;;;;;5106236;27;39908;-76
2022/02/16 11:52:38;;;;;;;36.70;7.40;;;12.50;99.90;;;;;;5095078;27;47218;-77
2022/02/16 11:55:20;;;;;;;33.28;6.13;;;12.40;99.90;;;;;;5090111;27;38895;-76
2022/02/16 11:57:48;;;;;;;38.42;8.18;;;12.50;99.90;;;;;;5100929;27;38218;-78
2022/02/16 12:00:19;;;;;;;42.95;8.43;;;12.50;99.90;;;;;;5102589;27;40333;-77
2022/02/16 12:03:06;;;;;;;47.65;7.78;;;12.40;99.90;;;;;;5106736;27;39375;-78
2022/02/16 12:05:57;;;;;;;48.50;8.05;;;12.40;99.90;;;;;;5072852;28;47862;-78
2022/02/16 12:08:32;;;;;;;44.42;7.18;;;12.40;99.90;;;;;;5100551;28;38334;-78
2022/02/16 12:11:06;;;;;;;45.38;8.40;;;12.40;99.90;;;;;;5088672;27;39847;-79
2022/02/16 12:13:37;;;;;;;53.92;10.82;;;12.40;99.90;;;;;;5094399;27;47413;-78
2022/02/16 12:16:13;;;;;;;40.10;8.73;;;12.40;99.90;;;;;;5085860;27;39160;-78
2022/02/16 12:18:41;;;;;;;45.97;9.07;;;12.40;99.90;;;;;;5081981;27;38179;-78
2022/02/16 12:21:08;;;;;;;46.78;9.20;;;12.30;99.90;;;;;;5106451;27;39825;-77
2022/02/16 12:23:45;;;;;;;38.80;7.75;;;12.40;99.90;;;;;;5106791;27;38585;-78
2022/02/16 12:26:17;;;;;;;52.10;8.82;;;12.40;99.90;;;;;;5105930;27;38293;-77
2022/02/16 12:28:56;;;;;;;58.20;9.35;;;12.40;99.90;;;;;;5105249;27;37334;-77
2022/02/16 12:31:25;;;;;;;44.25;9.90;;;12.40;99.90;;;;;;5105152;27;38695;-76
2022/02/16 12:33:57;;;;;;;52.08;9.32;;;12.40;99.90;;;;;;5103927;27;38357;-77
2022/02/16 12:36:24;;;;;;;;;;;12.40;99.90;;;;;;5084293;27;37088;-79
2022/02/16 12:38:53;;;;;;;49.03;8.35;;;12.50;99.90;;;;;;5091642;27;37967;-78
2022/02/16 12:41:20;;;;;;;45.03;9.10;;;12.40;99.90;;;;;;5107342;27;40479;-77